Hlavní strana
METAR-TAF:

METAR-TAF

Letiště :

Kittilä, Finsko

zeměpisná šířka: 67-42N, zeměpisná délka: 024-51E, výška: 196 m

Aktuální stav počasí

Zpráva byla vytvořena před 17 minutami, v 04:50 UTC
Jihozápadní vítr 6 kt
Teplota 4°C
Vlhkost vzduchu 81%
Tlak 1006 hPa
Viditelnost 10 km a více
Žádná oblačnost pod 1500 m, nevyskytují se cumulonimby.

METAR: EFKT 240450Z 22006KT CAVOK 04/01 Q1006

Čas: 07:07 (05:07 UTC)

Předpověď počasí

Zpráva byla vytvořena před 2 hodinami a 34 minutami, v 02:33 UTC
Předpověď platná od 24 v 03 UTC do 24 v 12 UTC
Jihojihozápadní vítr 5 kt
Viditelnost 10 km a více
Skoro jasno ve výšce 400 ft
Oblačno až skoro zataženo ve výšce 4000 ft
slabý déšť
Pravděpodobnost 40%
od 24 v 04 UTC do 24 v 09 UTC
Viditelnost: 2000 m
Oblačno až skoro zataženo ve výšce 400 ft
kouřmo
Dočasný
od 24 v 09 UTC do 24 v 12 UTC
Viditelnost: 7000 m
déšť

TAF: EFKT 240233Z 2403/2412 21005KT 9999 -RA FEW004 BKN040 PROB40 2404/2409 2000 BR BKN004 TEMPO 2409/2412 7000 RA

Stav a předpovědi počasí z více než 4 000 letišť (zprávy METAR a TAF).

Červené a žluté tečky na mapě představují dostupné meteorologické stanice.

Když kurzor umístíte na tečku, zobrazí se název stanice.

Pak kliknutím zobrazíte stav a předpověď počasí.

Chcete-li změnit mapu, kliknutím na zelené tlačítko se znaménkem +mapu přiblížíte, kliknutím na zelené tlačítko se znaménkem – mapu oddálíte a kliknutím na zelené šipky přejdete na sousední mapy.


METAR-TAF: